Panamint Springs, California
Current Conditions -  °F | °C
As of 2:56 AM on Thursday 27 Nov 2014 (Local Time) from KBIH Reporting Station
Clear Clear  
Wind Chill: 32°   Ceiling: Unl
Heat Index: 37°   Visibility: 10mi
Dew Point: 17°   Wind: 6mph
Humidity: 44%   Direction: 330°NNW
Pressure: 30.34"   Gusts: NA
Location:  36.6126°N, 118.162°W
Report Text: KBIH 271056Z AUTO 33005KT 10SM CLR 03/M08 A3034 RMK AO2 SLP252 T00281083
Loading
Personal Weather Stations






























Interactive Weather Map New forecast layout! Learn more

10-Day Weather Forecast

Advertisements
Track Severe Weather on mobile